sensor_id;sensor_type;location;lat;lon;timestamp;temperature;humidity
21019;DHT22;10667;51.056;3.732;2024-02-21T00:00:15;11.10;99.90
21019;DHT22;10667;51.056;3.732;2024-02-21T00:02:41;11.10;99.90
21019;DHT22;10667;51.056;3.732;2024-02-21T00:05:07;11.10;99.90
21019;DHT22;10667;51.056;3.732;2024-02-21T00:07:32;11.00;99.90
21019;DHT22;10667;51.056;3.732;2024-02-21T00:09:58;11.00;99.90
21019;DHT22;10667;51.056;3.732;2024-02-21T00:12:24;11.00;99.90
21019;DHT22;10667;51.056;3.732;2024-02-21T00:14:49;11.10;99.90
21019;DHT22;10667;51.056;3.732;2024-02-21T00:17:15;11.10;99.90
21019;DHT22;10667;51.056;3.732;2024-02-21T00:19:41;11.00;99.90
21019;DHT22;10667;51.056;3.732;2024-02-21T00:22:06;11.10;99.90
21019;DHT22;10667;51.056;3.732;2024-02-21T00:24:32;11.10;99.90
21019;DHT22;10667;51.056;3.732;2024-02-21T00:26:58;11.10;99.90
21019;DHT22;10667;51.056;3.732;2024-02-21T00:29:23;11.00;99.90
21019;DHT22;10667;51.056;3.732;2024-02-21T00:31:49;10.90;99.90
21019;DHT22;10667;51.056;3.732;2024-02-21T00:34:15;10.90;99.90
21019;DHT22;10667;51.056;3.732;2024-02-21T00:36:41;10.80;99.90
21019;DHT22;10667;51.056;3.732;2024-02-21T00:39:06;10.90;99.90
21019;DHT22;10667;51.056;3.732;2024-02-21T00:41:32;10.90;99.90
21019;DHT22;10667;51.056;3.732;2024-02-21T00:43:58;10.90;99.90
21019;DHT22;10667;51.056;3.732;2024-02-21T00:46:24;11.00;99.90
21019;DHT22;10667;51.056;3.732;2024-02-21T00:48:49;10.90;99.90
21019;DHT22;10667;51.056;3.732;2024-02-21T00:51:16;10.80;99.90
21019;DHT22;10667;51.056;3.732;2024-02-21T00:53:42;10.70;99.90
21019;DHT22;10667;51.056;3.732;2024-02-21T00:56:08;10.70;99.90
21019;DHT22;10667;51.056;3.732;2024-02-21T00:58:34;10.70;99.90
21019;DHT22;10667;51.056;3.732;2024-02-21T01:01:03;10.70;99.90
21019;DHT22;10667;51.056;3.732;2024-02-21T01:03:28;10.70;99.90
21019;DHT22;10667;51.056;3.732;2024-02-21T01:05:54;10.60;99.90
21019;DHT22;10667;51.056;3.732;2024-02-21T01:08:20;10.60;99.90
21019;DHT22;10667;51.056;3.732;2024-02-21T01:10:45;10.60;99.90
21019;DHT22;10667;51.056;3.732;2024-02-21T01:13:11;10.50;99.90
21019;DHT22;10667;51.056;3.732;2024-02-21T01:15:37;10.40;99.90
21019;DHT22;10667;51.056;3.732;2024-02-21T01:18:02;10.40;99.90
21019;DHT22;10667;51.056;3.732;2024-02-21T01:20:28;10.40;99.90
21019;DHT22;10667;51.056;3.732;2024-02-21T01:22:54;10.40;99.90
21019;DHT22;10667;51.056;3.732;2024-02-21T01:25:19;10.40;99.90
21019;DHT22;10667;51.056;3.732;2024-02-21T01:27:45;10.40;99.90
21019;DHT22;10667;51.056;3.732;2024-02-21T01:30:11;10.40;99.90
21019;DHT22;10667;51.056;3.732;2024-02-21T01:32:37;10.50;99.90
21019;DHT22;10667;51.056;3.732;2024-02-21T01:35:02;10.40;99.90
21019;DHT22;10667;51.056;3.732;2024-02-21T01:37:28;10.30;99.90
21019;DHT22;10667;51.056;3.732;2024-02-21T01:39:54;10.20;99.90
21019;DHT22;10667;51.056;3.732;2024-02-21T01:42:20;10.30;99.90
21019;DHT22;10667;51.056;3.732;2024-02-21T01:44:46;10.20;99.90
21019;DHT22;10667;51.056;3.732;2024-02-21T01:47:12;10.30;99.90
21019;DHT22;10667;51.056;3.732;2024-02-21T01:49:41;10.30;99.90
21019;DHT22;10667;51.056;3.732;2024-02-21T01:52:07;10.40;99.90
21019;DHT22;10667;51.056;3.732;2024-02-21T01:54:33;10.40;99.90
21019;DHT22;10667;51.056;3.732;2024-02-21T01:56:58;10.30;99.90
21019;DHT22;10667;51.056;3.732;2024-02-21T01:59:24;10.30;99.90
21019;DHT22;10667;51.056;3.732;2024-02-21T02:01:51;10.40;99.90
21019;DHT22;10667;51.056;3.732;2024-02-21T02:04:17;10.40;99.90
21019;DHT22;10667;51.056;3.732;2024-02-21T02:06:44;10.50;99.90
21019;DHT22;10667;51.056;3.732;2024-02-21T02:09:10;10.50;99.90
21019;DHT22;10667;51.056;3.732;2024-02-21T02:11:35;10.50;99.90
21019;DHT22;10667;51.056;3.732;2024-02-21T02:14:01;10.60;99.90
21019;DHT22;10667;51.056;3.732;2024-02-21T02:16:27;10.60;99.90
21019;DHT22;10667;51.056;3.732;2024-02-21T02:18:52;10.60;99.90
21019;DHT22;10667;51.056;3.732;2024-02-21T02:21:29;10.50;99.90
21019;DHT22;10667;51.056;3.732;2024-02-21T02:23:56;10.60;99.90
21019;DHT22;10667;51.056;3.732;2024-02-21T02:26:22;10.50;99.90
21019;DHT22;10667;51.056;3.732;2024-02-21T02:28:48;10.40;99.90
21019;DHT22;10667;51.056;3.732;2024-02-21T02:31:13;10.40;99.90
21019;DHT22;10667;51.056;3.732;2024-02-21T02:33:39;10.30;99.90
21019;DHT22;10667;51.056;3.732;2024-02-21T02:36:05;10.30;99.90
21019;DHT22;10667;51.056;3.732;2024-02-21T02:38:31;10.20;99.90
21019;DHT22;10667;51.056;3.732;2024-02-21T02:40:56;10.20;99.90
21019;DHT22;10667;51.056;3.732;2024-02-21T02:43:22;10.20;99.90
21019;DHT22;10667;51.056;3.732;2024-02-21T02:45:47;10.30;99.90
21019;DHT22;10667;51.056;3.732;2024-02-21T02:48:13;10.20;99.90
21019;DHT22;10667;51.056;3.732;2024-02-21T02:50:39;10.20;99.90
21019;DHT22;10667;51.056;3.732;2024-02-21T02:53:04;10.10;99.90
21019;DHT22;10667;51.056;3.732;2024-02-21T02:55:30;10.10;99.90
21019;DHT22;10667;51.056;3.732;2024-02-21T02:57:55;10.10;99.90
21019;DHT22;10667;51.056;3.732;2024-02-21T03:00:22;10.10;99.90
21019;DHT22;10667;51.056;3.732;2024-02-21T03:02:49;10.20;99.90
21019;DHT22;10667;51.056;3.732;2024-02-21T03:05:19;10.20;99.90
21019;DHT22;10667;51.056;3.732;2024-02-21T03:07:46;10.10;99.90
21019;DHT22;10667;51.056;3.732;2024-02-21T03:10:12;10.10;99.90
21019;DHT22;10667;51.056;3.732;2024-02-21T03:12:39;10.10;99.90
21019;DHT22;10667;51.056;3.732;2024-02-21T03:15:05;10.10;99.90
21019;DHT22;10667;51.056;3.732;2024-02-21T03:17:32;10.10;99.90
21019;DHT22;10667;51.056;3.732;2024-02-21T03:19:59;10.10;99.90
21019;DHT22;10667;51.056;3.732;2024-02-21T03:22:25;10.00;99.90
21019;DHT22;10667;51.056;3.732;2024-02-21T03:24:51;9.90;99.90
21019;DHT22;10667;51.056;3.732;2024-02-21T03:27:16;9.90;99.90
21019;DHT22;10667;51.056;3.732;2024-02-21T03:29:42;9.90;99.90
21019;DHT22;10667;51.056;3.732;2024-02-21T03:32:08;9.90;99.90
21019;DHT22;10667;51.056;3.732;2024-02-21T03:34:34;10.00;99.90
21019;DHT22;10667;51.056;3.732;2024-02-21T03:36:59;10.00;99.90
21019;DHT22;10667;51.056;3.732;2024-02-21T03:39:25;10.00;99.90
21019;DHT22;10667;51.056;3.732;2024-02-21T03:41:51;10.10;99.90
21019;DHT22;10667;51.056;3.732;2024-02-21T03:44:17;10.00;99.90
21019;DHT22;10667;51.056;3.732;2024-02-21T03:46:42;10.10;99.90
21019;DHT22;10667;51.056;3.732;2024-02-21T03:49:08;10.10;99.90
21019;DHT22;10667;51.056;3.732;2024-02-21T03:51:37;10.10;99.90
21019;DHT22;10667;51.056;3.732;2024-02-21T03:54:02;10.00;99.90
21019;DHT22;10667;51.056;3.732;2024-02-21T03:56:28;10.00;99.90
21019;DHT22;10667;51.056;3.732;2024-02-21T03:58:54;9.90;99.90
21019;DHT22;10667;51.056;3.732;2024-02-21T04:01:19;10.00;99.90
21019;DHT22;10667;51.056;3.732;2024-02-21T04:03:45;10.00;99.90
21019;DHT22;10667;51.056;3.732;2024-02-21T04:06:10;10.00;99.90
21019;DHT22;10667;51.056;3.732;2024-02-21T04:08:36;9.90;99.90
21019;DHT22;10667;51.056;3.732;2024-02-21T04:11:02;9.90;99.90
21019;DHT22;10667;51.056;3.732;2024-02-21T04:13:27;10.10;99.90
21019;DHT22;10667;51.056;3.732;2024-02-21T04:15:53;10.00;99.90
21019;DHT22;10667;51.056;3.732;2024-02-21T04:18:19;10.00;99.90
21019;DHT22;10667;51.056;3.732;2024-02-21T04:20:45;10.00;99.90
21019;DHT22;10667;51.056;3.732;2024-02-21T04:23:10;10.00;99.90
21019;DHT22;10667;51.056;3.732;2024-02-21T04:25:36;10.00;99.90
21019;DHT22;10667;51.056;3.732;2024-02-21T04:28:02;9.90;99.90
21019;DHT22;10667;51.056;3.732;2024-02-21T04:30:28;10.00;99.90
21019;DHT22;10667;51.056;3.732;2024-02-21T04:32:54;10.00;99.90
21019;DHT22;10667;51.056;3.732;2024-02-21T04:35:20;10.00;99.90
21019;DHT22;10667;51.056;3.732;2024-02-21T04:37:45;10.00;99.90
21019;DHT22;10667;51.056;3.732;2024-02-21T04:40:11;10.00;99.90
21019;DHT22;10667;51.056;3.732;2024-02-21T04:42:37;10.00;99.90
21019;DHT22;10667;51.056;3.732;2024-02-21T04:45:03;10.00;99.90
21019;DHT22;10667;51.056;3.732;2024-02-21T04:47:28;9.90;99.90
21019;DHT22;10667;51.056;3.732;2024-02-21T04:49:54;9.90;99.90
21019;DHT22;10667;51.056;3.732;2024-02-21T04:52:19;10.00;99.90
21019;DHT22;10667;51.056;3.732;2024-02-21T04:54:45;10.00;99.90
21019;DHT22;10667;51.056;3.732;2024-02-21T04:57:11;9.90;99.90
21019;DHT22;10667;51.056;3.732;2024-02-21T04:59:36;9.90;99.90
21019;DHT22;10667;51.056;3.732;2024-02-21T05:02:02;9.90;99.90
21019;DHT22;10667;51.056;3.732;2024-02-21T05:04:28;9.90;99.90
21019;DHT22;10667;51.056;3.732;2024-02-21T05:06:54;9.90;99.90
21019;DHT22;10667;51.056;3.732;2024-02-21T05:09:20;9.90;99.90
21019;DHT22;10667;51.056;3.732;2024-02-21T05:11:45;10.00;99.90
21019;DHT22;10667;51.056;3.732;2024-02-21T05:14:11;9.90;99.90
21019;DHT22;10667;51.056;3.732;2024-02-21T05:16:38;9.80;99.90
21019;DHT22;10667;51.056;3.732;2024-02-21T05:19:04;9.80;99.90
21019;DHT22;10667;51.056;3.732;2024-02-21T05:21:30;9.80;99.90
21019;DHT22;10667;51.056;3.732;2024-02-21T05:23:55;9.80;99.90
21019;DHT22;10667;51.056;3.732;2024-02-21T05:26:22;9.80;99.90
21019;DHT22;10667;51.056;3.732;2024-02-21T05:28:48;9.90;99.90
21019;DHT22;10667;51.056;3.732;2024-02-21T05:31:15;9.90;99.90
21019;DHT22;10667;51.056;3.732;2024-02-21T05:33:41;9.90;99.90
21019;DHT22;10667;51.056;3.732;2024-02-21T05:36:07;10.00;99.90
21019;DHT22;10667;51.056;3.732;2024-02-21T05:38:33;10.10;99.90
21019;DHT22;10667;51.056;3.732;2024-02-21T05:40:58;10.00;99.90
21019;DHT22;10667;51.056;3.732;2024-02-21T05:43:24;10.10;99.90
21019;DHT22;10667;51.056;3.732;2024-02-21T05:45:49;10.00;99.90
21019;DHT22;10667;51.056;3.732;2024-02-21T05:48:15;10.10;99.90
21019;DHT22;10667;51.056;3.732;2024-02-21T05:50:41;9.90;99.90
21019;DHT22;10667;51.056;3.732;2024-02-21T05:53:07;9.90;99.90
21019;DHT22;10667;51.056;3.732;2024-02-21T05:55:32;9.80;99.90
21019;DHT22;10667;51.056;3.732;2024-02-21T05:57:58;9.80;99.90
21019;DHT22;10667;51.056;3.732;2024-02-21T06:00:23;9.90;99.90
21019;DHT22;10667;51.056;3.732;2024-02-21T06:02:49;9.90;99.90
21019;DHT22;10667;51.056;3.732;2024-02-21T06:05:15;9.90;99.90
21019;DHT22;10667;51.056;3.732;2024-02-21T06:07:40;9.80;99.90
21019;DHT22;10667;51.056;3.732;2024-02-21T06:10:07;9.80;99.90
21019;DHT22;10667;51.056;3.732;2024-02-21T06:12:33;9.80;99.90
21019;DHT22;10667;51.056;3.732;2024-02-21T06:14:59;9.80;99.90
21019;DHT22;10667;51.056;3.732;2024-02-21T06:17:24;9.90;99.90
21019;DHT22;10667;51.056;3.732;2024-02-21T06:19:50;9.90;99.90
21019;DHT22;10667;51.056;3.732;2024-02-21T06:22:16;9.90;99.90
21019;DHT22;10667;51.056;3.732;2024-02-21T06:24:41;9.90;99.90
21019;DHT22;10667;51.056;3.732;2024-02-21T06:27:07;9.90;99.90
21019;DHT22;10667;51.056;3.732;2024-02-21T06:29:33;9.90;99.90
21019;DHT22;10667;51.056;3.732;2024-02-21T06:31:59;9.90;99.90
21019;DHT22;10667;51.056;3.732;2024-02-21T06:34:25;10.00;99.90
21019;DHT22;10667;51.056;3.732;2024-02-21T06:36:51;10.00;99.90
21019;DHT22;10667;51.056;3.732;2024-02-21T06:39:16;10.00;99.90
21019;DHT22;10667;51.056;3.732;2024-02-21T06:41:42;10.00;99.90
21019;DHT22;10667;51.056;3.732;2024-02-21T06:44:08;10.00;99.90
21019;DHT22;10667;51.056;3.732;2024-02-21T06:46:34;10.00;99.90
21019;DHT22;10667;51.056;3.732;2024-02-21T06:49:00;10.10;99.90
21019;DHT22;10667;51.056;3.732;2024-02-21T06:51:27;10.00;99.90
21019;DHT22;10667;51.056;3.732;2024-02-21T06:53:53;10.00;99.90
21019;DHT22;10667;51.056;3.732;2024-02-21T06:56:19;10.00;99.90
21019;DHT22;10667;51.056;3.732;2024-02-21T06:58:45;10.00;99.90
21019;DHT22;10667;51.056;3.732;2024-02-21T07:01:11;10.20;99.90
21019;DHT22;10667;51.056;3.732;2024-02-21T07:03:37;10.10;99.90
21019;DHT22;10667;51.056;3.732;2024-02-21T07:06:03;10.00;99.90
21019;DHT22;10667;51.056;3.732;2024-02-21T07:08:29;10.10;99.90
21019;DHT22;10667;51.056;3.732;2024-02-21T07:10:54;10.10;99.90
21019;DHT22;10667;51.056;3.732;2024-02-21T07:13:20;10.10;99.90
21019;DHT22;10667;51.056;3.732;2024-02-21T07:15:47;10.10;99.90
21019;DHT22;10667;51.056;3.732;2024-02-21T07:18:13;10.10;99.90
21019;DHT22;10667;51.056;3.732;2024-02-21T07:20:45;10.20;99.90
21019;DHT22;10667;51.056;3.732;2024-02-21T07:23:10;10.20;99.90
21019;DHT22;10667;51.056;3.732;2024-02-21T07:25:36;10.10;99.90
21019;DHT22;10667;51.056;3.732;2024-02-21T07:28:02;10.00;99.90
21019;DHT22;10667;51.056;3.732;2024-02-21T07:30:28;10.00;99.90
21019;DHT22;10667;51.056;3.732;2024-02-21T07:32:53;10.10;99.90
21019;DHT22;10667;51.056;3.732;2024-02-21T07:35:19;10.10;99.90
21019;DHT22;10667;51.056;3.732;2024-02-21T07:37:45;10.10;99.90
21019;DHT22;10667;51.056;3.732;2024-02-21T07:40:15;10.10;99.90
21019;DHT22;10667;51.056;3.732;2024-02-21T07:42:41;10.20;99.90
21019;DHT22;10667;51.056;3.732;2024-02-21T07:45:10;10.20;99.90
21019;DHT22;10667;51.056;3.732;2024-02-21T07:47:36;10.20;99.90
21019;DHT22;10667;51.056;3.732;2024-02-21T07:50:05;10.20;99.90
21019;DHT22;10667;51.056;3.732;2024-02-21T07:52:31;10.10;99.90
21019;DHT22;10667;51.056;3.732;2024-02-21T07:54:57;10.20;99.90
21019;DHT22;10667;51.056;3.732;2024-02-21T07:57:23;10.20;99.90
21019;DHT22;10667;51.056;3.732;2024-02-21T07:59:48;10.20;99.90
21019;DHT22;10667;51.056;3.732;2024-02-21T08:02:14;10.20;99.90
21019;DHT22;10667;51.056;3.732;2024-02-21T08:04:40;10.10;99.90
21019;DHT22;10667;51.056;3.732;2024-02-21T08:07:06;10.10;99.90
21019;DHT22;10667;51.056;3.732;2024-02-21T08:09:32;10.00;99.90
21019;DHT22;10667;51.056;3.732;2024-02-21T08:11:57;9.90;99.90
21019;DHT22;10667;51.056;3.732;2024-02-21T08:14:23;10.00;99.90
21019;DHT22;10667;51.056;3.732;2024-02-21T08:16:50;9.90;99.90
21019;DHT22;10667;51.056;3.732;2024-02-21T08:19:16;10.10;99.90
21019;DHT22;10667;51.056;3.732;2024-02-21T08:21:42;10.10;99.90
21019;DHT22;10667;51.056;3.732;2024-02-21T08:24:08;10.10;99.90
21019;DHT22;10667;51.056;3.732;2024-02-21T08:26:33;10.10;99.90
21019;DHT22;10667;51.056;3.732;2024-02-21T08:28:59;10.20;99.90
21019;DHT22;10667;51.056;3.732;2024-02-21T08:31:26;10.10;99.90
21019;DHT22;10667;51.056;3.732;2024-02-21T08:33:57;10.00;99.90
21019;DHT22;10667;51.056;3.732;2024-02-21T08:36:28;10.10;99.90
21019;DHT22;10667;51.056;3.732;2024-02-21T08:38:55;10.10;99.90
21019;DHT22;10667;51.056;3.732;2024-02-21T08:41:20;10.10;99.90
21019;DHT22;10667;51.056;3.732;2024-02-21T08:43:48;10.10;99.90
21019;DHT22;10667;51.056;3.732;2024-02-21T08:46:14;10.00;99.90
21019;DHT22;10667;51.056;3.732;2024-02-21T08:48:40;10.00;99.90
21019;DHT22;10667;51.056;3.732;2024-02-21T08:51:06;10.10;99.90
21019;DHT22;10667;51.056;3.732;2024-02-21T08:53:31;10.10;99.90
21019;DHT22;10667;51.056;3.732;2024-02-21T08:55:57;10.00;99.90
21019;DHT22;10667;51.056;3.732;2024-02-21T08:58:24;10.10;99.90
21019;DHT22;10667;51.056;3.732;2024-02-21T09:00:52;10.20;99.90
21019;DHT22;10667;51.056;3.732;2024-02-21T09:03:18;10.30;99.90
21019;DHT22;10667;51.056;3.732;2024-02-21T09:05:45;10.30;99.90
21019;DHT22;10667;51.056;3.732;2024-02-21T09:08:12;10.30;99.90
21019;DHT22;10667;51.056;3.732;2024-02-21T09:10:39;10.20;99.90
21019;DHT22;10667;51.056;3.732;2024-02-21T09:13:04;10.20;99.90
21019;DHT22;10667;51.056;3.732;2024-02-21T09:15:31;10.20;99.90
21019;DHT22;10667;51.056;3.732;2024-02-21T09:17:57;10.30;99.90
21019;DHT22;10667;51.056;3.732;2024-02-21T09:20:22;10.30;99.90
21019;DHT22;10667;51.056;3.732;2024-02-21T09:22:48;10.20;99.90
21019;DHT22;10667;51.056;3.732;2024-02-21T09:25:14;10.20;99.90
21019;DHT22;10667;51.056;3.732;2024-02-21T09:27:40;10.30;99.90
21019;DHT22;10667;51.056;3.732;2024-02-21T09:30:06;10.30;99.90
21019;DHT22;10667;51.056;3.732;2024-02-21T09:32:32;10.40;99.90
21019;DHT22;10667;51.056;3.732;2024-02-21T09:34:58;10.30;99.90
21019;DHT22;10667;51.056;3.732;2024-02-21T09:37:24;10.10;99.90
21019;DHT22;10667;51.056;3.732;2024-02-21T09:39:49;10.20;99.90
21019;DHT22;10667;51.056;3.732;2024-02-21T09:42:20;10.30;99.90
21019;DHT22;10667;51.056;3.732;2024-02-21T09:44:47;10.30;99.90
21019;DHT22;10667;51.056;3.732;2024-02-21T09:47:22;10.30;99.90
21019;DHT22;10667;51.056;3.732;2024-02-21T09:49:49;10.20;99.90
21019;DHT22;10667;51.056;3.732;2024-02-21T09:52:19;10.20;99.90
21019;DHT22;10667;51.056;3.732;2024-02-21T09:54:47;10.10;99.90
21019;DHT22;10667;51.056;3.732;2024-02-21T09:57:14;10.20;99.90
21019;DHT22;10667;51.056;3.732;2024-02-21T09:59:40;10.30;99.90
21019;DHT22;10667;51.056;3.732;2024-02-21T10:02:07;10.30;99.90
21019;DHT22;10667;51.056;3.732;2024-02-21T10:04:33;10.40;99.90
21019;DHT22;10667;51.056;3.732;2024-02-21T10:06:59;10.50;99.90
21019;DHT22;10667;51.056;3.732;2024-02-21T10:09:26;10.50;99.90
21019;DHT22;10667;51.056;3.732;2024-02-21T10:12:11;10.50;99.90
21019;DHT22;10667;51.056;3.732;2024-02-21T10:14:37;10.50;99.90
21019;DHT22;10667;51.056;3.732;2024-02-21T10:17:03;10.70;99.90
21019;DHT22;10667;51.056;3.732;2024-02-21T10:19:30;10.80;99.90
21019;DHT22;10667;51.056;3.732;2024-02-21T10:22:04;10.70;99.90
21019;DHT22;10667;51.056;3.732;2024-02-21T10:24:33;10.60;99.90
21019;DHT22;10667;51.056;3.732;2024-02-21T10:27:03;10.50;99.90
21019;DHT22;10667;51.056;3.732;2024-02-21T10:29:32;10.60;99.90
21019;DHT22;10667;51.056;3.732;2024-02-21T10:32:11;10.60;99.90
21019;DHT22;10667;51.056;3.732;2024-02-21T10:34:39;10.70;99.90
21019;DHT22;10667;51.056;3.732;2024-02-21T10:37:07;10.60;99.90
21019;DHT22;10667;51.056;3.732;2024-02-21T10:39:34;10.60;99.90
21019;DHT22;10667;51.056;3.732;2024-02-21T10:42:01;10.60;99.90
21019;DHT22;10667;51.056;3.732;2024-02-21T10:44:31;10.60;99.90
21019;DHT22;10667;51.056;3.732;2024-02-21T10:46:58;10.70;99.90
21019;DHT22;10667;51.056;3.732;2024-02-21T10:49:25;10.70;99.90
21019;DHT22;10667;51.056;3.732;2024-02-21T10:54:45;10.70;99.90
21019;DHT22;10667;51.056;3.732;2024-02-21T10:57:13;10.70;99.90
21019;DHT22;10667;51.056;3.732;2024-02-21T10:59:40;10.70;99.90
21019;DHT22;10667;51.056;3.732;2024-02-21T11:02:06;10.80;99.90
21019;DHT22;10667;51.056;3.732;2024-02-21T11:04:33;10.80;99.90
21019;DHT22;10667;51.056;3.732;2024-02-21T11:07:02;10.60;99.90
21019;DHT22;10667;51.056;3.732;2024-02-21T11:09:30;10.60;99.90
21019;DHT22;10667;51.056;3.732;2024-02-21T11:12:01;10.70;99.90
21019;DHT22;10667;51.056;3.732;2024-02-21T11:14:28;10.70;99.90
21019;DHT22;10667;51.056;3.732;2024-02-21T11:16:54;10.60;99.90
21019;DHT22;10667;51.056;3.732;2024-02-21T11:19:23;10.60;99.90
21019;DHT22;10667;51.056;3.732;2024-02-21T11:21:49;10.60;99.90
21019;DHT22;10667;51.056;3.732;2024-02-21T11:24:32;10.70;99.90
21019;DHT22;10667;51.056;3.732;2024-02-21T11:27:21;10.80;99.90
21019;DHT22;10667;51.056;3.732;2024-02-21T11:29:48;10.60;99.90
21019;DHT22;10667;51.056;3.732;2024-02-21T11:32:17;10.50;99.90
21019;DHT22;10667;51.056;3.732;2024-02-21T11:35:06;10.50;99.90
21019;DHT22;10667;51.056;3.732;2024-02-21T11:37:34;10.60;99.90
21019;DHT22;10667;51.056;3.732;2024-02-21T11:40:02;10.50;99.90
21019;DHT22;10667;51.056;3.732;2024-02-21T11:42:29;10.50;99.90
21019;DHT22;10667;51.056;3.732;2024-02-21T11:44:56;10.50;99.90
21019;DHT22;10667;51.056;3.732;2024-02-21T11:47:22;10.50;99.90
21019;DHT22;10667;51.056;3.732;2024-02-21T11:49:49;10.50;99.90
21019;DHT22;10667;51.056;3.732;2024-02-21T11:52:22;10.50;99.90
21019;DHT22;10667;51.056;3.732;2024-02-21T11:54:50;10.60;99.90
21019;DHT22;10667;51.056;3.732;2024-02-21T11:57:17;10.60;99.90
21019;DHT22;10667;51.056;3.732;2024-02-21T11:59:44;10.70;99.90
21019;DHT22;10667;51.056;3.732;2024-02-21T12:02:12;10.70;99.90
21019;DHT22;10667;51.056;3.732;2024-02-21T12:04:38;10.70;99.90
21019;DHT22;10667;51.056;3.732;2024-02-21T12:07:04;10.70;99.90
21019;DHT22;10667;51.056;3.732;2024-02-21T12:09:30;10.80;99.90
21019;DHT22;10667;51.056;3.732;2024-02-21T12:12:03;10.70;99.90
21019;DHT22;10667;51.056;3.732;2024-02-21T12:14:30;10.70;99.90
21019;DHT22;10667;51.056;3.732;2024-02-21T12:16:56;10.70;99.90
21019;DHT22;10667;51.056;3.732;2024-02-21T12:19:22;10.60;99.90
21019;DHT22;10667;51.056;3.732;2024-02-21T12:21:48;10.70;99.90
21019;DHT22;10667;51.056;3.732;2024-02-21T12:24:26;10.70;99.90
21019;DHT22;10667;51.056;3.732;2024-02-21T12:26:53;10.70;99.90
21019;DHT22;10667;51.056;3.732;2024-02-21T12:29:23;10.70;99.90
21019;DHT22;10667;51.056;3.732;2024-02-21T12:31:50;10.70;99.90
21019;DHT22;10667;51.056;3.732;2024-02-21T12:34:16;10.70;99.90
21019;DHT22;10667;51.056;3.732;2024-02-21T12:36:45;10.70;99.90
21019;DHT22;10667;51.056;3.732;2024-02-21T12:39:14;10.60;99.90
21019;DHT22;10667;51.056;3.732;2024-02-21T12:41:41;10.70;99.90
21019;DHT22;10667;51.056;3.732;2024-02-21T12:44:08;10.70;99.90
21019;DHT22;10667;51.056;3.732;2024-02-21T12:46:38;10.70;99.90
21019;DHT22;10667;51.056;3.732;2024-02-21T12:49:05;10.80;99.90
21019;DHT22;10667;51.056;3.732;2024-02-21T12:51:33;10.70;99.90
21019;DHT22;10667;51.056;3.732;2024-02-21T12:53:59;10.70;99.90
21019;DHT22;10667;51.056;3.732;2024-02-21T12:56:25;10.70;99.90
21019;DHT22;10667;51.056;3.732;2024-02-21T12:58:54;10.80;99.90
21019;DHT22;10667;51.056;3.732;2024-02-21T13:01:19;10.80;99.90
21019;DHT22;10667;51.056;3.732;2024-02-21T13:03:46;10.80;99.90
21019;DHT22;10667;51.056;3.732;2024-02-21T13:06:12;10.70;99.90
21019;DHT22;10667;51.056;3.732;2024-02-21T13:08:38;10.70;99.90
21019;DHT22;10667;51.056;3.732;2024-02-21T13:11:05;10.80;99.90
21019;DHT22;10667;51.056;3.732;2024-02-21T13:13:31;10.80;99.90
21019;DHT22;10667;51.056;3.732;2024-02-21T13:15:57;10.80;99.90
21019;DHT22;10667;51.056;3.732;2024-02-21T13:18:23;10.70;99.90
21019;DHT22;10667;51.056;3.732;2024-02-21T13:20:49;10.70;99.90
21019;DHT22;10667;51.056;3.732;2024-02-21T13:23:14;10.70;99.90
21019;DHT22;10667;51.056;3.732;2024-02-21T13:25:40;10.70;99.90
21019;DHT22;10667;51.056;3.732;2024-02-21T13:28:06;10.70;99.90
21019;DHT22;10667;51.056;3.732;2024-02-21T13:30:32;10.80;99.90
21019;DHT22;10667;51.056;3.732;2024-02-21T13:32:58;10.70;99.90
21019;DHT22;10667;51.056;3.732;2024-02-21T13:35:24;10.70;99.90
21019;DHT22;10667;51.056;3.732;2024-02-21T13:37:49;10.60;99.90
21019;DHT22;10667;51.056;3.732;2024-02-21T13:40:16;10.60;99.90
21019;DHT22;10667;51.056;3.732;2024-02-21T13:42:41;10.60;99.90
21019;DHT22;10667;51.056;3.732;2024-02-21T13:45:08;10.60;99.90
21019;DHT22;10667;51.056;3.732;2024-02-21T13:47:34;10.60;99.90
21019;DHT22;10667;51.056;3.732;2024-02-21T13:50:02;10.60;99.90
21019;DHT22;10667;51.056;3.732;2024-02-21T13:52:30;10.60;99.90
21019;DHT22;10667;51.056;3.732;2024-02-21T13:54:56;10.60;99.90
21019;DHT22;10667;51.056;3.732;2024-02-21T13:57:22;10.60;99.90
21019;DHT22;10667;51.056;3.732;2024-02-21T13:59:48;10.60;99.90
21019;DHT22;10667;51.056;3.732;2024-02-21T14:02:14;10.60;99.90
21019;DHT22;10667;51.056;3.732;2024-02-21T14:04:39;10.60;99.90
21019;DHT22;10667;51.056;3.732;2024-02-21T14:07:05;10.60;99.90
21019;DHT22;10667;51.056;3.732;2024-02-21T14:09:31;10.60;99.90
21019;DHT22;10667;51.056;3.732;2024-02-21T14:11:58;10.50;99.90
21019;DHT22;10667;51.056;3.732;2024-02-21T14:14:24;10.60;99.90
21019;DHT22;10667;51.056;3.732;2024-02-21T14:16:49;10.50;99.90
21019;DHT22;10667;51.056;3.732;2024-02-21T14:19:15;10.50;99.90
21019;DHT22;10667;51.056;3.732;2024-02-21T14:21:41;10.50;99.90
21019;DHT22;10667;51.056;3.732;2024-02-21T14:24:07;10.50;99.90
21019;DHT22;10667;51.056;3.732;2024-02-21T14:26:33;10.60;99.90
21019;DHT22;10667;51.056;3.732;2024-02-21T14:28:59;10.50;99.90
21019;DHT22;10667;51.056;3.732;2024-02-21T14:31:25;10.50;99.90
21019;DHT22;10667;51.056;3.732;2024-02-21T14:33:51;10.40;99.90
21019;DHT22;10667;51.056;3.732;2024-02-21T14:36:17;10.30;99.90
21019;DHT22;10667;51.056;3.732;2024-02-21T14:38:43;10.30;99.90
21019;DHT22;10667;51.056;3.732;2024-02-21T14:41:10;10.30;99.90
21019;DHT22;10667;51.056;3.732;2024-02-21T14:43:38;10.40;99.90
21019;DHT22;10667;51.056;3.732;2024-02-21T14:46:04;10.50;99.90
21019;DHT22;10667;51.056;3.732;2024-02-21T14:48:31;10.50;99.90
21019;DHT22;10667;51.056;3.732;2024-02-21T14:50:58;10.30;99.90
21019;DHT22;10667;51.056;3.732;2024-02-21T14:53:24;10.30;99.90
21019;DHT22;10667;51.056;3.732;2024-02-21T14:55:50;10.30;99.90
21019;DHT22;10667;51.056;3.732;2024-02-21T14:58:18;10.40;99.90
21019;DHT22;10667;51.056;3.732;2024-02-21T15:00:45;10.40;99.90
21019;DHT22;10667;51.056;3.732;2024-02-21T15:03:12;10.30;99.90
21019;DHT22;10667;51.056;3.732;2024-02-21T15:05:41;10.30;99.90
21019;DHT22;10667;51.056;3.732;2024-02-21T15:08:07;10.20;99.90
21019;DHT22;10667;51.056;3.732;2024-02-21T15:10:34;10.20;99.90
21019;DHT22;10667;51.056;3.732;2024-02-21T15:13:00;10.30;99.90
21019;DHT22;10667;51.056;3.732;2024-02-21T15:15:26;10.20;99.90
21019;DHT22;10667;51.056;3.732;2024-02-21T15:17:51;10.30;99.90
21019;DHT22;10667;51.056;3.732;2024-02-21T15:20:17;10.30;99.90
21019;DHT22;10667;51.056;3.732;2024-02-21T15:22:43;10.30;99.90
21019;DHT22;10667;51.056;3.732;2024-02-21T15:25:09;10.20;99.90
21019;DHT22;10667;51.056;3.732;2024-02-21T15:27:43;10.30;99.90
21019;DHT22;10667;51.056;3.732;2024-02-21T15:30:10;10.20;99.90